Chesterville, Ohio
Current Conditions -  °F | °C
As of 7:36 PM on Wednesday 26 Nov 2014 (Local Time) from K4I3 Reporting Station
Overcast Overcast  
Wind Chill: 34°   Ceiling: 3200
Heat Index: 34°   Visibility: 10mi
Dew Point: 27°   Wind: 3mph
Humidity: 75%   Direction: 330°NNW
Pressure: 30.02"   Gusts: NA
Location:  40.48°N, 82.68°W
Report Text: K4I3 270036Z AUTO 33003KT 10SM OVC032 01/M03 A3002 RMK AO2
Loading
Personal Weather Stations






























Interactive Weather Map New forecast layout! Learn more

10-Day Weather Forecast

Advertisements
Track Severe Weather on mobile